createdAt,value
2023-04-09T00:01:46.720Z,99549.91
2023-04-09T00:03:51.855Z,99549.06
2023-04-09T00:05:57.956Z,99545.72
2023-04-09T00:08:02.965Z,99539.06
2023-04-09T00:10:12.419Z,99539.94
2023-04-09T00:12:17.471Z,99544.13
2023-04-09T00:14:23.089Z,99544.94
2023-04-09T00:16:28.305Z,99539.09
2023-04-09T00:18:33.349Z,99537.44
2023-04-09T00:20:38.633Z,99540.78
2023-04-09T00:22:43.641Z,99545.78
2023-04-09T00:24:49.279Z,99535.75
2023-04-09T00:26:57.131Z,99547.44
2023-04-09T00:29:02.211Z,99543.25
2023-04-09T00:31:07.873Z,99537.44
2023-04-09T00:33:12.942Z,99539.94
2023-04-09T00:35:19.000Z,99529.06
2023-04-09T00:37:24.367Z,99529.06
2023-04-09T00:39:29.555Z,99543.22
2023-04-09T00:41:34.993Z,99533.25
2023-04-09T00:43:42.623Z,99534.06
2023-04-09T00:45:48.190Z,99540.72
2023-04-09T00:47:54.080Z,99534.91
2023-04-09T00:49:59.489Z,99533.22
2023-04-09T00:52:05.119Z,99532.38
2023-04-09T00:54:10.849Z,99536.53
2023-04-09T00:56:16.703Z,99529.88
2023-04-09T00:58:21.868Z,99529.06
2023-04-09T01:00:29.787Z,99527.38
2023-04-09T01:02:35.615Z,99531.53
2023-04-09T01:04:43.282Z,99534.03
2023-04-09T01:06:55.437Z,99533.16
2023-04-09T01:09:09.104Z,99534.00
2023-04-09T01:11:26.925Z,99527.31
2023-04-09T01:13:42.456Z,99524.00
2023-04-09T01:15:55.035Z,99528.19
2023-04-09T01:18:10.308Z,99525.69
2023-04-09T01:20:21.417Z,99524.00
2023-04-09T01:22:39.859Z,99524.84
2023-04-09T01:25:00.696Z,99526.44
2023-04-09T01:27:14.828Z,99527.25
2023-04-09T01:29:42.193Z,99518.09
2023-04-09T01:31:48.461Z,99523.91
2023-04-09T01:33:55.446Z,99525.59
2023-04-09T01:36:01.690Z,99526.44
2023-04-09T01:38:07.979Z,99522.25
2023-04-09T01:40:14.380Z,99518.09
2023-04-09T01:42:20.553Z,99523.91
2023-04-09T01:44:27.801Z,99521.41
2023-04-09T01:46:36.975Z,99518.91
2023-04-09T01:48:42.975Z,99520.56
2023-04-09T01:50:48.819Z,99526.41
2023-04-09T01:52:54.704Z,99533.91
2023-04-09T01:54:59.766Z,99530.53
2023-04-09T01:57:04.781Z,99528.88
2023-04-09T01:59:09.849Z,99521.38
2023-04-09T02:01:23.520Z,99527.19
2023-04-09T02:03:38.338Z,99528.81
2023-04-09T02:05:55.930Z,99528.81
2023-04-09T02:08:07.740Z,99527.16
2023-04-09T02:10:17.500Z,99532.13
2023-04-09T02:12:24.445Z,99532.94
2023-04-09T02:14:31.234Z,99527.19
2023-04-09T02:16:37.102Z,99530.50
2023-04-09T02:18:45.107Z,99528.88
2023-04-09T02:20:50.113Z,99528.03
2023-04-09T02:22:55.118Z,99528.84
2023-04-09T02:25:00.168Z,99527.19
2023-04-09T02:27:06.306Z,99525.50
2023-04-09T02:29:11.383Z,99526.38
2023-04-09T02:31:16.640Z,99523.91
2023-04-09T02:33:22.070Z,99529.75
2023-04-09T02:35:29.885Z,99528.91
2023-04-09T02:37:35.065Z,99527.19
2023-04-09T02:39:40.114Z,99526.38
2023-04-09T02:41:45.111Z,99528.81
2023-04-09T02:43:50.409Z,99524.69
2023-04-09T02:45:55.864Z,99528.91
2023-04-09T02:48:00.903Z,99526.41
2023-04-09T02:50:11.727Z,99527.22
2023-04-09T02:52:27.093Z,99527.19
2023-04-09T02:54:32.128Z,99527.16
2023-04-09T02:56:37.286Z,99527.19
2023-04-09T02:58:42.522Z,99519.69
2023-04-09T03:00:47.838Z,99526.41
2023-04-09T03:02:55.864Z,99521.38
2023-04-09T03:05:01.510Z,99517.22
2023-04-09T03:07:06.572Z,99513.84
2023-04-09T03:09:14.188Z,99514.69
2023-04-09T03:11:19.448Z,99516.41
2023-04-09T03:13:24.741Z,99511.41
2023-04-09T03:15:30.383Z,99505.56
2023-04-09T03:17:35.452Z,99503.84
2023-04-09T03:19:40.564Z,99508.06
2023-04-09T03:21:46.658Z,99502.19
2023-04-09T03:23:51.681Z,99503.84
2023-04-09T03:26:07.220Z,99504.69
2023-04-09T03:28:19.878Z,99507.16
2023-04-09T03:30:29.802Z,99502.16
2023-04-09T03:32:36.327Z,99507.16
2023-04-09T03:34:42.554Z,99508.84
2023-04-09T03:36:48.163Z,99502.16
2023-04-09T03:39:01.131Z,99500.47
2023-04-09T03:41:16.621Z,99502.13
2023-04-09T03:43:21.790Z,99502.13
2023-04-09T03:45:30.177Z,99505.44
2023-04-09T03:47:49.208Z,99505.44
2023-04-09T03:49:56.766Z,99501.28
2023-04-09T03:52:05.972Z,99498.75
2023-04-09T03:54:15.959Z,99500.41
2023-04-09T03:56:24.617Z,99502.03
2023-04-09T03:58:29.722Z,99507.03
2023-04-09T04:00:35.946Z,99506.19
2023-04-09T04:02:59.718Z,99513.66
2023-04-09T04:05:28.493Z,99502.03
2023-04-09T04:07:37.647Z,99502.91
2023-04-09T04:09:48.000Z,99507.09
2023-04-09T04:11:59.006Z,99505.44
2023-04-09T04:14:16.770Z,99502.94
2023-04-09T04:16:26.070Z,99510.44
2023-04-09T04:18:33.358Z,99505.47
2023-04-09T04:20:38.880Z,99510.44
2023-04-09T04:22:48.572Z,99514.63
2023-04-09T04:24:54.265Z,99514.63
2023-04-09T04:27:03.697Z,99516.31
2023-04-09T04:29:12.619Z,99512.13
2023-04-09T04:31:27.698Z,99515.44
2023-04-09T04:33:36.779Z,99518.78
2023-04-09T04:35:45.965Z,99525.44
2023-04-09T04:38:07.997Z,99530.41
2023-04-09T04:40:16.237Z,99533.72
2023-04-09T04:42:23.956Z,99530.38
2023-04-09T04:44:29.284Z,99532.03
2023-04-09T04:46:43.674Z,99531.22
2023-04-09T04:48:49.593Z,99532.88
2023-04-09T04:51:02.411Z,99533.69
2023-04-09T04:53:18.572Z,99524.50
2023-04-09T04:55:28.271Z,99533.69
2023-04-09T04:57:36.616Z,99530.38
2023-04-09T04:59:43.214Z,99535.41
2023-04-09T05:01:50.690Z,99535.38
2023-04-09T05:03:56.508Z,99534.53
2023-04-09T05:06:12.484Z,99532.88
2023-04-09T05:08:21.585Z,99538.72
2023-04-09T05:10:30.183Z,99532.00
2023-04-09T05:12:39.468Z,99532.88
2023-04-09T05:14:46.631Z,99541.25
2023-04-09T05:16:52.411Z,99542.06
2023-04-09T05:19:02.395Z,99540.41
2023-04-09T05:21:08.217Z,99542.94
2023-04-09T05:23:14.224Z,99539.66
2023-04-09T05:25:24.022Z,99544.66
2023-04-09T05:27:29.893Z,99538.84
2023-04-09T05:29:41.844Z,99538.03
2023-04-09T05:31:48.879Z,99531.38
2023-04-09T05:34:06.657Z,99541.38
2023-04-09T05:36:19.562Z,99536.41
2023-04-09T05:38:24.624Z,99543.09
2023-04-09T05:40:35.609Z,99544.78
2023-04-09T05:42:44.423Z,99548.94
2023-04-09T05:44:59.002Z,99549.00
2023-04-09T05:47:04.180Z,99550.69
2023-04-09T05:49:17.904Z,99556.50
2023-04-09T05:51:25.716Z,99559.03
2023-04-09T05:53:31.544Z,99555.72
2023-04-09T05:55:37.042Z,99551.56
2023-04-09T05:57:42.405Z,99550.72
2023-04-09T05:59:48.377Z,99560.75
2023-04-09T06:01:56.442Z,99552.47
2023-04-09T06:04:02.367Z,99556.66
2023-04-09T06:06:09.132Z,99558.34
2023-04-09T06:08:14.560Z,99554.16
2023-04-09T06:10:20.441Z,99556.66
2023-04-09T06:12:26.769Z,99561.66
2023-04-09T06:14:33.332Z,99557.50
2023-04-09T06:16:38.431Z,99560.88
2023-04-09T06:18:46.873Z,99557.53
2023-04-09T06:20:52.304Z,99555.00
2023-04-09T06:22:57.790Z,99557.50
2023-04-09T06:25:03.217Z,99562.53
2023-04-09T06:27:08.348Z,99557.53
2023-04-09T06:29:13.595Z,99557.53
2023-04-09T06:31:19.151Z,99558.38
2023-04-09T06:33:24.348Z,99555.78
2023-04-09T06:35:32.164Z,99554.13
2023-04-09T06:37:37.338Z,99558.28
2023-04-09T06:39:50.644Z,99554.94
2023-04-09T06:41:59.465Z,99558.31
2023-04-09T06:44:17.144Z,99565.81
2023-04-09T06:46:22.651Z,99559.91
2023-04-09T06:48:27.862Z,99567.41
2023-04-09T06:50:35.509Z,99561.53
2023-04-09T06:52:40.832Z,99562.38
2023-04-09T06:54:46.293Z,99560.66
2023-04-09T06:56:52.013Z,99565.63
2023-04-09T06:58:57.262Z,99562.31
2023-04-09T07:01:02.973Z,99557.94
2023-04-09T07:03:09.463Z,99566.97
2023-04-09T07:05:14.763Z,99567.09
2023-04-09T07:07:24.377Z,99562.13
2023-04-09T07:09:31.715Z,99562.75
2023-04-09T07:11:37.186Z,99565.28
2023-04-09T07:13:42.230Z,99565.34
2023-04-09T07:15:47.387Z,99563.59
2023-04-09T07:17:52.494Z,99568.44
2023-04-09T07:19:57.716Z,99569.78
2023-04-09T07:22:02.741Z,99568.28
2023-04-09T07:24:10.742Z,99563.13
2023-04-09T07:26:15.757Z,99568.00
2023-04-09T07:28:21.524Z,99567.25
2023-04-09T07:30:27.562Z,99568.75
2023-04-09T07:32:32.897Z,99566.03
2023-04-09T07:34:37.933Z,99573.47
2023-04-09T07:36:43.391Z,99570.78
2023-04-09T07:38:48.789Z,99567.13
2023-04-09T07:40:56.616Z,99573.63
2023-04-09T07:43:01.790Z,99576.59
2023-04-09T07:45:07.830Z,99570.34
2023-04-09T07:47:13.323Z,99566.31
2023-04-09T07:49:18.967Z,99569.00
2023-04-09T07:51:24.007Z,99571.38
2023-04-09T07:53:29.306Z,99564.16
2023-04-09T07:55:34.372Z,99566.31
2023-04-09T07:57:43.174Z,99564.22
2023-04-09T07:59:48.400Z,99569.59
2023-04-09T08:01:53.787Z,99556.59
2023-04-09T08:03:59.057Z,99571.09
2023-04-09T08:06:04.269Z,99565.59
2023-04-09T08:08:09.598Z,99562.72
2023-04-09T08:10:16.502Z,99569.28
2023-04-09T08:12:21.538Z,99568.31
2023-04-09T08:14:29.201Z,99574.22
2023-04-09T08:16:34.325Z,99563.94
2023-04-09T08:18:39.925Z,99566.34
2023-04-09T08:20:45.723Z,99561.19
2023-04-09T08:22:50.948Z,99563.09
2023-04-09T08:24:56.482Z,99568.06
2023-04-09T08:27:01.995Z,99567.84
2023-04-09T08:29:07.599Z,99569.16
2023-04-09T08:31:15.873Z,99566.75
2023-04-09T08:33:21.192Z,99562.94
2023-04-09T08:35:26.227Z,99569.13
2023-04-09T08:37:31.228Z,99576.91
2023-04-09T08:39:36.545Z,99575.09
2023-04-09T08:41:46.779Z,99580.94
2023-04-09T08:43:58.318Z,99575.13
2023-04-09T08:46:04.846Z,99579.00
2023-04-09T08:48:13.442Z,99566.81
2023-04-09T08:50:18.808Z,99572.81
2023-04-09T08:52:35.132Z,99560.72
2023-04-09T08:54:40.827Z,99564.72
2023-04-09T08:56:46.074Z,99567.50
2023-04-09T08:58:53.075Z,99565.03
2023-04-09T09:00:58.518Z,99570.94
2023-04-09T09:03:08.743Z,99564.97
2023-04-09T09:05:16.378Z,99562.47
2023-04-09T09:07:21.474Z,99564.97
2023-04-09T09:09:26.990Z,99571.34
2023-04-09T09:11:33.118Z,99566.13
2023-04-09T09:13:38.159Z,99578.41
2023-04-09T09:15:43.308Z,99575.28
2023-04-09T09:17:58.406Z,99574.63
2023-04-09T09:20:25.835Z,99565.94
2023-04-09T09:22:30.874Z,99562.88
2023-04-09T09:24:36.726Z,99566.50
2023-04-09T09:26:42.339Z,99560.34
2023-04-09T09:28:48.346Z,99557.09
2023-04-09T09:30:53.552Z,99565.31
2023-04-09T09:33:09.515Z,99563.78
2023-04-09T09:35:14.896Z,99563.22
2023-04-09T09:37:32.983Z,99555.63
2023-04-09T09:39:47.170Z,99557.13
2023-04-09T09:42:09.507Z,99562.25
2023-04-09T09:44:32.897Z,99558.91
2023-04-09T09:46:41.249Z,99563.97
2023-04-09T09:48:50.178Z,99562.25
2023-04-09T09:50:55.846Z,99562.25
2023-04-09T09:53:07.191Z,99558.50
2023-04-09T09:55:16.307Z,99559.16
2023-04-09T09:57:24.663Z,99564.31
2023-04-09T09:59:37.205Z,99563.97
2023-04-09T10:01:44.162Z,99557.63
2023-04-09T10:03:52.756Z,99558.66
2023-04-09T10:05:59.088Z,99565.00
2023-04-09T10:08:07.194Z,99553.03
2023-04-09T10:10:12.796Z,99552.31
2023-04-09T10:12:18.765Z,99559.25
2023-04-09T10:14:24.668Z,99558.78
2023-04-09T10:16:31.391Z,99565.69
2023-04-09T10:18:36.953Z,99560.97
2023-04-09T10:20:49.606Z,99556.16
2023-04-09T10:22:56.273Z,99554.84
2023-04-09T10:25:04.143Z,99553.94
2023-04-09T10:27:19.756Z,99560.91
2023-04-09T10:29:31.758Z,99558.50
2023-04-09T10:31:56.369Z,99553.88
2023-04-09T10:34:08.213Z,99555.34
2023-04-09T10:36:15.862Z,99553.09
2023-04-09T10:38:35.651Z,99562.13
2023-04-09T10:40:52.279Z,99551.88
2023-04-09T10:42:58.813Z,99552.03
2023-04-09T10:45:12.041Z,99548.53
2023-04-09T10:47:34.235Z,99549.91
2023-04-09T10:49:41.380Z,99555.53
2023-04-09T10:51:54.369Z,99541.22
2023-04-09T10:53:59.402Z,99538.97
2023-04-09T10:56:19.370Z,99541.44
2023-04-09T10:58:24.762Z,99541.97
2023-04-09T11:00:30.500Z,99541.16
2023-04-09T11:03:08.387Z,99535.28
2023-04-09T11:05:25.417Z,99540.44
2023-04-09T11:07:33.198Z,99534.22
2023-04-09T11:09:38.712Z,99528.69
2023-04-09T11:11:46.549Z,99523.97
2023-04-09T11:13:52.112Z,99517.84
2023-04-09T11:15:58.948Z,99529.75
2023-04-09T11:18:07.192Z,99530.63
2023-04-09T11:20:14.036Z,99519.19
2023-04-09T11:22:19.307Z,99517.69
2023-04-09T11:24:25.931Z,99520.38
2023-04-09T11:26:39.472Z,99525.53
2023-04-09T11:28:47.738Z,99518.00
2023-04-09T11:30:54.898Z,99516.25
2023-04-09T11:33:00.372Z,99517.31
2023-04-09T11:35:05.598Z,99514.41
2023-04-09T11:37:17.329Z,99511.81
2023-04-09T11:39:22.625Z,99509.41
2023-04-09T11:41:37.386Z,99501.47
2023-04-09T11:43:42.630Z,99500.53
2023-04-09T11:45:50.850Z,99500.28
2023-04-09T11:47:56.592Z,99493.84
2023-04-09T11:50:02.165Z,99492.59
2023-04-09T11:52:08.013Z,99488.50
2023-04-09T11:54:15.567Z,99496.03
2023-04-09T11:56:20.709Z,99488.06
2023-04-09T11:58:26.933Z,99488.88
2023-04-09T12:00:32.570Z,99492.59
2023-04-09T12:02:42.053Z,99486.19
2023-04-09T12:04:53.371Z,99486.59
2023-04-09T12:07:00.705Z,99479.50
2023-04-09T12:09:06.161Z,99481.91
2023-04-09T12:11:13.018Z,99480.03
2023-04-09T12:13:18.061Z,99476.47
2023-04-09T12:15:25.615Z,99473.94
2023-04-09T12:17:30.759Z,99477.63
2023-04-09T12:19:39.946Z,99477.44
2023-04-09T12:21:53.106Z,99478.97
2023-04-09T12:23:57.949Z,99477.00
2023-04-09T12:26:03.633Z,99464.31
2023-04-09T12:28:10.488Z,99471.38
2023-04-09T12:30:15.784Z,99455.91
2023-04-09T12:32:20.813Z,99467.13
2023-04-09T12:34:27.752Z,99467.91
2023-04-09T12:36:35.378Z,99460.88
2023-04-09T12:38:40.540Z,99457.69
2023-04-09T12:40:45.591Z,99462.66
2023-04-09T12:42:50.986Z,99471.41
2023-04-09T12:44:56.112Z,99473.03
2023-04-09T12:47:01.592Z,99463.66
2023-04-09T12:49:06.616Z,99456.06
2023-04-09T12:51:12.068Z,99464.88
2023-04-09T12:53:19.700Z,99462.75
2023-04-09T12:55:25.465Z,99459.72
2023-04-09T12:57:31.074Z,99452.59
2023-04-09T12:59:36.137Z,99452.06
2023-04-09T13:01:43.301Z,99455.69
2023-04-09T13:03:48.826Z,99451.13
2023-04-09T13:05:54.340Z,99461.78
2023-04-09T13:07:59.324Z,99453.03
2023-04-09T13:10:07.618Z,99440.41
2023-04-09T13:12:12.805Z,99439.06
2023-04-09T13:14:17.858Z,99429.41
2023-04-09T13:16:22.905Z,99429.91
2023-04-09T13:18:27.931Z,99421.78
2023-04-09T13:20:33.396Z,99421.22
2023-04-09T13:22:39.273Z,99424.72
2023-04-09T13:24:44.437Z,99422.34
2023-04-09T13:26:52.851Z,99423.66
2023-04-09T13:28:58.782Z,99426.88
2023-04-09T13:31:04.187Z,99419.91
2023-04-09T13:33:09.967Z,99423.13
2023-04-09T13:35:15.277Z,99416.88
2023-04-09T13:37:20.561Z,99406.31
2023-04-09T13:39:25.574Z,99403.13
2023-04-09T13:41:31.829Z,99404.44
2023-04-09T13:43:39.648Z,99401.88
2023-04-09T13:45:44.944Z,99412.00
2023-04-09T13:47:50.448Z,99410.22
2023-04-09T13:49:55.953Z,99405.25
2023-04-09T13:52:01.303Z,99412.34
2023-04-09T13:54:08.202Z,99405.72
2023-04-09T13:56:13.367Z,99407.94
2023-04-09T13:58:18.976Z,99399.66
2023-04-09T14:00:27.765Z,99396.56
2023-04-09T14:02:33.162Z,99383.16
2023-04-09T14:04:38.505Z,99386.63
2023-04-09T14:06:44.598Z,99371.91
2023-04-09T14:08:49.813Z,99380.25
2023-04-09T14:10:54.878Z,99376.59
2023-04-09T14:13:00.165Z,99378.97
2023-04-09T14:15:05.248Z,99371.25
2023-04-09T14:17:13.401Z,99373.81
2023-04-09T14:19:18.632Z,99377.91
2023-04-09T14:21:24.049Z,99374.66
2023-04-09T14:23:29.565Z,99372.84
2023-04-09T14:25:34.608Z,99356.88
2023-04-09T14:27:40.153Z,99351.31
2023-04-09T14:29:45.227Z,99354.00
2023-04-09T14:31:53.463Z,99359.75
2023-04-09T14:34:01.906Z,99359.06
2023-04-09T14:36:07.828Z,99353.50
2023-04-09T14:38:13.133Z,99364.34
2023-04-09T14:40:18.215Z,99361.25
2023-04-09T14:42:23.463Z,99365.63
2023-04-09T14:44:28.547Z,99365.16
2023-04-09T14:46:33.844Z,99362.03
2023-04-09T14:48:39.529Z,99369.53
2023-04-09T14:50:47.196Z,99371.94
2023-04-09T14:52:52.989Z,99379.63
2023-04-09T14:54:58.001Z,99375.47
2023-04-09T14:57:03.891Z,99377.13
2023-04-09T14:59:09.799Z,99380.78
2023-04-09T15:01:14.839Z,99376.66
2023-04-09T15:03:20.268Z,99377.41
2023-04-09T15:05:25.930Z,99371.56
2023-04-09T15:07:34.020Z,99373.47
2023-04-09T15:09:39.069Z,99374.91
2023-04-09T15:11:44.290Z,99379.28
2023-04-09T15:13:49.431Z,99376.34
2023-04-09T15:15:54.678Z,99359.50
2023-04-09T15:18:06.045Z,99360.41
2023-04-09T15:20:13.999Z,99371.03
2023-04-09T15:22:19.164Z,99366.63
2023-04-09T15:24:26.833Z,99358.72
2023-04-09T15:26:33.310Z,99355.91
2023-04-09T15:28:38.720Z,99363.84
2023-04-09T15:30:43.819Z,99368.56
2023-04-09T15:32:49.207Z,99364.44
2023-04-09T15:34:54.432Z,99359.81
2023-04-09T15:36:59.526Z,99365.78
2023-04-09T15:39:06.731Z,99370.06
2023-04-09T15:41:16.941Z,99367.38
2023-04-09T15:43:23.393Z,99360.41
2023-04-09T15:45:29.782Z,99356.00
2023-04-09T15:47:35.384Z,99360.47
2023-04-09T15:49:41.012Z,99371.56
2023-04-09T15:51:46.045Z,99367.34
2023-04-09T15:53:51.161Z,99377.50
2023-04-09T15:55:56.194Z,99376.53
2023-04-09T15:58:04.064Z,99382.59
2023-04-09T16:00:12.333Z,99377.47
2023-04-09T16:02:17.626Z,99369.63
2023-04-09T16:04:22.695Z,99367.91
2023-04-09T16:06:28.115Z,99368.03
2023-04-09T16:08:33.131Z,99365.81
2023-04-09T16:10:38.474Z,99360.66
2023-04-09T16:12:43.497Z,99366.84
2023-04-09T16:14:51.635Z,99364.81
2023-04-09T16:16:56.702Z,99368.53
2023-04-09T16:19:01.815Z,99368.97
2023-04-09T16:21:08.269Z,99360.91
2023-04-09T16:23:13.287Z,99365.47
2023-04-09T16:25:18.326Z,99362.56
2023-04-09T16:27:23.470Z,99361.16
2023-04-09T16:29:28.533Z,99365.44
2023-04-09T16:31:36.480Z,99365.66
2023-04-09T16:33:41.640Z,99361.47
2023-04-09T16:35:47.148Z,99348.34
2023-04-09T16:37:52.537Z,99353.66
2023-04-09T16:39:58.220Z,99350.50
2023-04-09T16:42:03.344Z,99356.19
2023-04-09T16:44:08.986Z,99345.31
2023-04-09T16:46:14.161Z,99337.81
2023-04-09T16:48:21.791Z,99341.94
2023-04-09T16:50:27.981Z,99340.41
2023-04-09T16:52:35.460Z,99338.84
2023-04-09T16:54:40.547Z,99333.66
2023-04-09T16:56:45.675Z,99333.66
2023-04-09T16:58:50.782Z,99340.75
2023-04-09T17:00:55.979Z,99331.91
2023-04-09T17:03:02.307Z,99334.81
2023-04-09T17:05:11.699Z,99342.75
2023-04-09T17:07:17.901Z,99328.50
2023-04-09T17:09:22.893Z,99331.06
2023-04-09T17:11:27.930Z,99335.59
2023-04-09T17:13:36.066Z,99336.44
2023-04-09T17:15:41.634Z,99344.34
2023-04-09T17:17:51.512Z,99343.06
2023-04-09T17:19:58.521Z,99344.41
2023-04-09T17:22:06.468Z,99340.22
2023-04-09T17:24:11.539Z,99342.66
2023-04-09T17:26:17.026Z,99349.03
2023-04-09T17:28:22.833Z,99354.78
2023-04-09T17:30:27.837Z,99357.63
2023-04-09T17:32:32.917Z,99361.78
2023-04-09T17:34:37.991Z,99368.41
2023-04-09T17:36:43.202Z,99376.47
2023-04-09T17:38:53.991Z,99383.38
2023-04-09T17:40:59.162Z,99376.72
2023-04-09T17:43:04.285Z,99381.53
2023-04-09T17:45:11.946Z,99391.25
2023-04-09T17:47:17.222Z,99393.81
2023-04-09T17:49:22.525Z,99394.66
2023-04-09T17:51:27.867Z,99398.06
2023-04-09T17:53:33.201Z,99391.34
2023-04-09T17:55:40.770Z,99394.66
2023-04-09T17:57:46.137Z,99403.69
2023-04-09T17:59:52.291Z,99400.78
2023-04-09T18:01:57.906Z,99408.13
2023-04-09T18:04:03.975Z,99404.34
2023-04-09T18:06:10.155Z,99398.31
2023-04-09T18:08:15.885Z,99397.22
2023-04-09T18:10:21.424Z,99395.84
2023-04-09T18:12:29.223Z,99393.56
2023-04-09T18:14:34.752Z,99391.22
2023-04-09T18:16:42.161Z,99406.59
2023-04-09T18:18:47.477Z,99398.53
2023-04-09T18:20:53.738Z,99407.22
2023-04-09T18:22:58.742Z,99415.00
2023-04-09T18:25:04.333Z,99411.84
2023-04-09T18:27:09.584Z,99412.00
2023-04-09T18:29:17.449Z,99425.47
2023-04-09T18:31:22.605Z,99424.03
2023-04-09T18:33:27.906Z,99424.91
2023-04-09T18:35:32.939Z,99432.53
2023-04-09T18:37:38.438Z,99449.34
2023-04-09T18:39:43.734Z,99451.13
2023-04-09T18:41:49.030Z,99444.50
2023-04-09T18:43:54.077Z,99443.72
2023-04-09T18:46:01.864Z,99450.50
2023-04-09T18:48:08.357Z,99450.56
2023-04-09T18:50:15.936Z,99450.63
2023-04-09T18:52:20.927Z,99447.34
2023-04-09T18:54:26.310Z,99456.56
2023-04-09T18:56:31.639Z,99460.75
2023-04-09T18:58:36.848Z,99457.41
2023-04-09T19:00:42.346Z,99459.06
2023-04-09T19:02:50.078Z,99465.72
2023-04-09T19:04:56.483Z,99469.91
2023-04-09T19:07:01.498Z,99472.41
2023-04-09T19:09:06.806Z,99469.91
2023-04-09T19:11:12.759Z,99469.09
2023-04-09T19:13:18.409Z,99474.88
2023-04-09T19:15:24.230Z,99473.22
2023-04-09T19:17:29.553Z,99479.06
2023-04-09T19:19:37.588Z,99481.50
2023-04-09T19:21:42.650Z,99471.47
2023-04-09T19:23:48.260Z,99472.31
2023-04-09T19:25:55.382Z,99476.50
2023-04-09T19:28:00.547Z,99469.75
2023-04-09T19:30:05.936Z,99476.38
2023-04-09T19:32:13.384Z,99483.84
2023-04-09T19:34:18.480Z,99477.97
2023-04-09T19:36:26.952Z,99482.91
2023-04-09T19:38:32.092Z,99484.53
2023-04-09T19:40:37.348Z,99485.31
2023-04-09T19:42:42.374Z,99486.94
2023-04-09T19:44:47.580Z,99476.88
2023-04-09T19:46:52.636Z,99475.13
2023-04-09T19:48:57.792Z,99471.75
2023-04-09T19:51:03.286Z,99480.06
2023-04-09T19:53:10.957Z,99470.03
2023-04-09T19:55:16.031Z,99470.88
2023-04-09T19:57:21.010Z,99472.59
2023-04-09T19:59:26.315Z,99471.81
2023-04-09T20:01:31.555Z,99466.03
2023-04-09T20:03:36.716Z,99463.41
2023-04-09T20:05:41.808Z,99460.84
2023-04-09T20:07:47.114Z,99471.56
2023-04-09T20:09:54.803Z,99471.53
2023-04-09T20:12:04.496Z,99469.03
2023-04-09T20:14:11.320Z,99468.88
2023-04-09T20:16:16.729Z,99468.81
2023-04-09T20:18:21.782Z,99472.88
2023-04-09T20:20:27.369Z,99467.06
2023-04-09T20:22:32.382Z,99468.03
2023-04-09T20:24:38.487Z,99467.16
2023-04-09T20:26:46.505Z,99463.00
2023-04-09T20:28:51.790Z,99474.72
2023-04-09T20:30:57.003Z,99473.91
2023-04-09T20:33:02.201Z,99471.44
2023-04-09T20:35:09.498Z,99480.53
2023-04-09T20:37:14.880Z,99474.66
2023-04-09T20:39:19.955Z,99472.09
2023-04-09T20:41:24.971Z,99474.50
2023-04-09T20:43:32.752Z,99468.53
2023-04-09T20:45:37.850Z,99471.78
2023-04-09T20:47:43.225Z,99472.56
2023-04-09T20:49:49.154Z,99480.06
2023-04-09T20:51:54.195Z,99477.69
2023-04-09T20:54:01.630Z,99466.84
2023-04-09T20:56:07.442Z,99467.63
2023-04-09T20:58:12.709Z,99459.19
2023-04-09T21:00:20.744Z,99469.00
2023-04-09T21:02:26.007Z,99465.75
2023-04-09T21:04:31.329Z,99464.19
2023-04-09T21:06:37.261Z,99463.38
2023-04-09T21:08:43.737Z,99461.50
2023-04-09T21:10:48.745Z,99460.56
2023-04-09T21:12:53.876Z,99464.56
2023-04-09T21:14:58.925Z,99463.78
2023-04-09T21:17:06.976Z,99470.41
2023-04-09T21:19:12.070Z,99468.81
2023-04-09T21:21:17.194Z,99468.84
2023-04-09T21:23:22.200Z,99463.84
2023-04-09T21:25:30.379Z,99460.41
2023-04-09T21:27:35.659Z,99457.91
2023-04-09T21:29:40.821Z,99462.16
2023-04-09T21:31:45.842Z,99463.78
2023-04-09T21:33:53.426Z,99458.81
2023-04-09T21:35:58.549Z,99460.56
2023-04-09T21:38:03.719Z,99452.09
2023-04-09T21:40:12.980Z,99449.47
2023-04-09T21:42:18.000Z,99458.38
2023-04-09T21:44:23.092Z,99459.81
2023-04-09T21:46:28.288Z,99454.94
2023-04-09T21:48:33.921Z,99459.84
2023-04-09T21:50:41.861Z,99456.50
2023-04-09T21:52:48.567Z,99466.34
2023-04-09T21:54:53.583Z,99463.84
2023-04-09T21:56:58.605Z,99460.47
2023-04-09T21:59:03.787Z,99461.19
2023-04-09T22:01:22.426Z,99463.47
2023-04-09T22:03:35.059Z,99461.00
2023-04-09T22:05:42.778Z,99453.53
2023-04-09T22:07:47.799Z,99461.00
2023-04-09T22:09:53.047Z,99464.25
2023-04-09T22:11:58.635Z,99467.56
2023-04-09T22:14:03.672Z,99467.53
2023-04-09T22:16:10.344Z,99470.72
2023-04-09T22:18:15.838Z,99468.97
2023-04-09T22:20:20.902Z,99470.53
2023-04-09T22:22:28.533Z,99467.06
2023-04-09T22:24:34.174Z,99462.16
2023-04-09T22:26:41.025Z,99456.53
2023-04-09T22:28:46.244Z,99460.78
2023-04-09T22:30:51.629Z,99453.09
2023-04-09T22:32:56.669Z,99458.72
2023-04-09T22:35:01.738Z,99457.06
2023-04-09T22:37:06.793Z,99456.94
2023-04-09T22:39:14.667Z,99455.31
2023-04-09T22:41:20.168Z,99459.31
2023-04-09T22:43:25.552Z,99464.22
2023-04-09T22:45:32.342Z,99461.47
2023-04-09T22:47:37.398Z,99472.91
2023-04-09T22:49:42.889Z,99477.75
2023-04-09T22:51:48.590Z,99476.28
2023-04-09T22:53:53.579Z,99477.84
2023-04-09T22:56:02.208Z,99482.78
2023-04-09T22:58:07.501Z,99488.63
2023-04-09T23:00:13.657Z,99489.34
2023-04-09T23:02:18.767Z,99487.47
2023-04-09T23:04:25.463Z,99481.16
2023-04-09T23:06:31.061Z,99477.94
2023-04-09T23:10:41.408Z,99466.22
2023-04-09T23:12:49.457Z,99472.66
2023-04-09T23:14:54.496Z,99467.53
2023-04-09T23:16:59.546Z,99465.00
2023-04-09T23:19:04.792Z,99468.16
2023-04-09T23:21:11.022Z,99462.28
2023-04-09T23:23:16.190Z,99463.72
2023-04-09T23:25:21.988Z,99465.13
2023-04-09T23:27:28.939Z,99466.84
2023-04-09T23:29:36.953Z,99466.84
2023-04-09T23:31:41.995Z,99463.53
2023-04-09T23:33:47.247Z,99458.88
2023-04-09T23:35:52.333Z,99465.38
2023-04-09T23:37:58.646Z,99456.13
2023-04-09T23:40:03.994Z,99460.25
2023-04-09T23:42:09.016Z,99466.75
2023-04-09T23:44:14.021Z,99463.06
2023-04-09T23:46:21.918Z,99461.50
2023-04-09T23:48:26.964Z,99459.78
2023-04-09T23:50:31.965Z,99459.81
2023-04-09T23:52:40.369Z,99453.50
2023-04-09T23:54:51.966Z,99451.88
2023-04-09T23:56:58.223Z,99452.34
2023-04-09T23:59:03.230Z,99451.25
